Latest Weather Observations for Cape Flattery

IDQ60801

Issued at 8:35 am EST Thursday 23 October 2014 (issued every 30 minutes, with the page automatically refreshed every 10 minutes)

About weather observations | Map of weather stations | Latest weather observations for QLD | Other Formats
Station Details ID: 031213 Name: CAPE FLATTERY Lat: -14.97 Lon: 145.31 Height: 18.5 m
Data from the previous 72 hours. | See also: Recent months at Cape Flattery
Date/Time
EST
Temp
°C
App
Temp
°C
Dew
Point
Rel
Hum
%
Delta-T
°C
Wind Press
QNH
hPa
Press
MSL
hPa
Rain
since 9 am
mm
Dir
 
Spd
km/h
Gust
km/h
Spd
kts
Gust
kts
23/08:30am 26.5 20.7 16.1 52 6.4 SE 41 52 22 28 1017.1 1017.0 0.0
23/08:11am 26.3 21.4 16.3 54 6.1 SE 37 56 20 30 1017.0 1016.9 0.0
23/08:00am 25.9 20.1 15.0 51 6.6 SE 39 56 21 30 1017.0 1016.9 0.0
23/07:38am 25.7 20.4 15.4 53 6.2 SE 37 57 20 31 1016.8 1016.7 0.0
23/07:30am 25.5 20.3 15.5 54 6.1 SE 37 54 20 29 1016.7 1016.6 0.0
23/07:21am 25.4 20.4 15.1 53 6.2 SE 35 54 19 29 1016.6 1016.5 0.0
23/07:00am 25.0 20.1 15.3 55 5.8 SE 35 50 19 27 1016.4 1016.3 0.0
23/06:30am 24.3 19.3 15.0 56 5.6 SE 35 48 19 26 1016.2 1016.1 0.0
23/06:00am 23.9 19.5 15.1 58 5.3 SE 32 46 17 25 1016.1 1016.0 0.0
23/05:30am 23.7 19.1 15.2 59 5.1 SE 33 46 18 25 1015.8 1015.7 0.0
23/05:00am 23.7 19.7 16.2 63 4.6 SE 32 44 17 24 1015.6 1015.5 0.0
23/04:30am 23.7 19.9 15.7 61 4.8 SE 30 44 16 24 1015.3 1015.2 0.0
23/04:00am 23.7 19.3 15.7 61 4.8 SE 33 44 18 24 1015.2 1015.1 0.0
23/03:30am 23.7 19.2 15.5 60 4.9 SE 33 46 18 25 1015.0 1014.9 0.0
23/03:00am 23.8 18.7 14.8 57 5.4 SE 35 44 19 24 1015.1 1015.0 0.0
23/02:30am 23.8 17.8 14.5 56 5.5 SE 39 50 21 27 1015.3 1015.2 0.0
23/02:00am 23.8 18.5 15.3 59 5.1 SE 37 50 20 27 1015.6 1015.5 0.0
23/01:30am 23.9 19.3 16.2 62 4.7 SE 35 50 19 27 1015.9 1015.8 0.0
23/01:00am 23.8 19.2 16.1 62 4.7 SE 35 48 19 26 1016.4 1016.3 0.0
23/12:30am 23.8 19.6 15.8 61 4.8 SE 32 43 17 23 1016.8 1016.7 0.0
23/12:00am 24.0 19.7 16.0 61 4.9 SE 33 43 18 23 1017.4 1017.3 0.0
 
Date/Time
EST
Temp
°C
App
Temp
°C
Dew
Point
Rel
Hum
%
Delta-T
°C
Wind Press
QNH
hPa
Press
MSL
hPa
Rain
since 9 am
mm
Dir
 
Spd
km/h
Gust
km/h
Spd
kts
Gust
kts
22/11:30pm 24.2 19.8 15.7 59 5.1 SE 33 48 18 26 1017.7 1017.6 0.0
22/11:00pm 24.2 20.2 16.7 63 4.6 SE 33 46 18 25 1018.0 1017.9 0.0
22/10:42pm 24.1 20.6 16.6 63 4.6 SE 30 48 16 26 1018.1 1018.0 0.0
22/10:30pm 24.3 20.9 16.8 63 4.6 SE 30 43 16 23 1018.1 1018.0 0.0
22/10:00pm 24.3 20.3 16.8 63 4.6 SE 33 46 18 25 1018.1 1018.0 0.0
22/09:30pm 24.3 20.5 16.6 62 4.7 SE 32 48 17 26 1018.0 1017.9 0.0
22/09:00pm 24.3 20.3 16.6 62 4.7 SE 33 48 18 26 1017.7 1017.6 0.0
22/08:32pm 24.4 20.1 16.9 63 4.6 SE 35 54 19 29 1017.5 1017.4 0.0
22/08:30pm 24.4 19.7 16.9 63 4.6 SE 37 54 20 29 1017.5 1017.4 0.0
22/08:23pm 24.5 19.9 16.2 60 5.1 SE 35 54 19 29 1017.5 1017.4 0.0
22/08:00pm 24.3 20.2 17.3 65 4.3 SE 35 46 19 25 1017.1 1017.0 0.0
22/07:30pm 24.4 21.3 18.3 69 3.8 SE 32 46 17 25 1016.8 1016.7 0.0
22/07:00pm 24.5 20.7 18.0 67 4.1 SE 35 48 19 26 1016.4 1016.3 0.0
22/06:30pm 24.5 20.3 17.2 63 4.5 SE 35 54 19 29 1016.0 1015.9 0.0
22/06:29pm 24.6 20.6 17.6 65 4.4 SE 35 54 19 29 1016.0 1015.9 0.0
22/06:00pm 24.8 21.3 18.0 66 4.3 SE 33 46 18 25 1015.9 1015.8 0.0
22/05:53pm 25.0 21.2 18.0 65 4.4 SE 35 54 19 29 1015.9 1015.8 0.0
22/05:30pm 25.4 21.0 17.6 62 4.9 SE 37 48 20 26 1015.8 1015.7 0.0
22/05:00pm 26.0 22.0 17.6 60 5.3 SE 35 46 19 25 1015.6 1015.5 0.0
22/04:30pm 26.9 23.4 17.9 57 5.7 SE 33 48 18 26 1015.4 1015.3 0.0
22/04:00pm 27.4 23.1 17.8 55 6.1 SE 37 48 20 26 1015.3 1015.2 0.0
22/03:30pm 27.2 22.7 17.4 55 6.2 SE 37 48 20 26 1015.2 1015.1 0.0
22/03:00pm 27.9 23.4 17.4 52 6.6 SE 37 52 20 28 1015.4 1015.3 0.0
22/02:30pm 28.1 23.5 17.9 54 6.5 SE 39 52 21 28 1015.5 1015.4 0.0
22/02:00pm 28.3 23.1 17.5 52 6.8 SE 41 56 22 30 1015.6 1015.5 0.0
22/01:30pm 28.0 22.7 17.2 52 6.8 SE 41 52 22 28 1015.9 1015.8 0.0
22/01:05pm 27.6 22.7 17.2 53 6.5 SE 39 57 21 31 1016.3 1016.2 0.0
22/01:00pm 28.4 23.9 18.2 54 6.5 SE 39 52 21 28 1016.3 1016.2 0.0
22/12:42pm 28.4 24.0 18.5 55 6.3 SE 39 57 21 31 1016.5 1016.4 0.0
22/12:30pm 28.2 23.0 18.3 55 6.3 SE 43 54 23 29 1016.7 1016.6 0.0
22/12:00pm 28.2 23.3 17.4 52 6.8 SE 39 54 21 29 1017.1 1017.0 0.0
22/11:30am 28.2 22.7 17.7 53 6.6 SE 43 57 23 31 1017.4 1017.3 0.0
22/11:00am 27.6 22.5 17.7 54 6.2 SE 41 54 22 29 1017.7 1017.6 0.0
22/10:30am 27.4 22.6 17.6 55 6.2 SE 39 54 21 29 1017.9 1017.8 0.0
22/10:00am 27.3 22.8 18.3 58 5.7 SE 39 56 21 30 1018.1 1018.0 0.0
22/09:30am 26.7 23.2 18.8 62 5.1 SE 35 50 19 27 1018.1 1018.0 0.0
22/09:09am 26.7 23.6 18.8 62 5.1 SE 33 52 18 28 1018.2 1018.1 0.0
22/09:00am 25.6 22.4 18.5 65 4.5 SE 33 44 18 24 1018.1 1018.0 1.0
22/08:30am 26.4 23.5 19.3 65 4.6 SE 33 44 18 24 1018.0 1017.9 1.0
22/08:00am 25.1 21.7 19.0 69 3.9 SE 35 46 19 25 1017.5 1017.4 1.0
22/07:30am 25.3 23.2 19.0 68 4.0 SE 28 43 15 23 1017.2 1017.1 1.0
22/07:00am 24.5 21.6 18.9 71 3.6 SE 32 43 17 23 1016.7 1016.6 1.0
22/06:30am 24.2 22.0 18.8 72 3.4 SE 28 43 15 23 1016.4 1016.3 1.0
22/06:00am 23.8 21.2 18.7 73 3.2 SE 30 41 16 22 1016.2 1016.1 1.0
22/05:30am 23.7 21.2 18.8 74 3.1 SE 30 41 16 22 1015.9 1015.8 1.0
22/05:00am 23.6 21.5 18.9 75 3.0 SE 28 41 15 22 1015.6 1015.5 1.0
22/04:30am 23.8 20.8 18.7 73 3.2 SE 32 43 17 23 1015.7 1015.6 1.0
22/04:00am 23.7 21.0 18.4 72 3.3 SE 30 44 16 24 1015.5 1015.4 1.0
22/03:30am 23.7 21.3 19.0 75 3.0 SE 30 43 16 23 1015.4 1015.3 1.0
22/03:00am 23.7 21.5 19.6 78 2.6 SE 30 41 16 22 1015.5 1015.4 1.0
22/02:30am 23.7 20.9 19.4 77 2.8 SE 33 46 18 25 1015.7 1015.6 1.0
22/02:00am 23.4 21.7 19.8 80 2.3 SE 28 43 15 23 1016.1 1016.0 1.0
22/01:30am 23.3 20.7 19.9 81 2.2 SE 33 44 18 24 1016.5 1016.4 1.0
22/01:00am 22.8 20.3 20.1 85 1.7 SE 33 44 18 24 1017.0 1016.9 1.0
22/12:30am 22.8 21.2 20.7 88 1.4 SE 30 44 16 24 1017.5 1017.4 0.4
22/12:00am 22.8 19.3 20.5 87 1.5 SE 39 50 21 27 1018.0 1017.9 0.0
 
Date/Time
EST
Temp
°C
App
Temp
°C
Dew
Point
Rel
Hum
%
Delta-T
°C
Wind Press
QNH
hPa
Press
MSL
hPa
Rain
since 9 am
mm
Dir
 
Spd
km/h
Gust
km/h
Spd
kts
Gust
kts
21/11:30pm 24.2 22.5 19.7 76 2.9 ESE 28 41 15 22 1018.3 1018.2 0.0
21/11:07pm 24.5 22.3 19.6 74 3.2 SE 30 48 16 26 1018.6 1018.5 0.0
21/11:00pm 24.4 22.0 19.2 73 3.3 SE 30 44 16 24 1018.7 1018.6 0.0
21/10:30pm 24.0 20.3 18.4 71 3.5 ESE 35 56 19 30 1018.8 1018.7 0.0
21/10:22pm 24.3 21.3 19.8 76 2.9 SE 35 56 19 30 1018.8 1018.7 0.0
21/10:00pm 24.2 21.8 19.9 77 2.8 SE 32 46 17 25 1018.8 1018.7 0.0
21/09:30pm 24.4 21.9 20.1 77 2.8 SE 33 43 18 23 1018.5 1018.4 0.0
21/09:00pm 24.3 21.2 19.6 75 3.0 SE 35 54 19 29 1018.3 1018.2 0.0
21/08:30pm 24.3 21.8 19.8 76 2.9 SE 32 41 17 22 1018.1 1018.0 0.0
21/08:00pm 24.4 22.0 19.9 76 2.9 SE 32 43 17 23 1018.0 1017.9 0.0
21/07:30pm 24.6 22.1 20.1 76 2.9 SE 33 46 18 25 1017.6 1017.5 0.0
21/07:00pm 24.9 21.7 19.5 72 3.5 SE 35 48 19 26 1017.3 1017.2 0.0
21/06:30pm 25.0 22.6 20.0 74 3.2 SE 32 43 17 23 1017.1 1017.0 0.0
21/06:00pm 25.2 21.9 19.3 70 3.8 SE 35 46 19 25 1016.7 1016.6 0.0
21/05:30pm 25.7 22.3 19.1 67 4.2 SE 35 50 19 27 1016.2 1016.1 0.0
21/05:00pm 25.9 22.2 19.1 66 4.4 SE 37 52 20 28 1016.0 1015.9 0.0
21/04:30pm 26.3 22.4 18.7 63 4.9 SE 37 52 20 28 1015.7 1015.6 0.0
21/04:00pm 27.4 23.3 19.2 61 5.3 SE 39 50 21 27 1015.6 1015.5 0.0
21/03:30pm 26.8 22.6 18.9 62 5.1 SE 39 52 21 28 1015.8 1015.7 0.0
21/03:00pm 27.1 23.2 17.8 56 5.9 SE 35 52 19 28 1015.9 1015.8 0.0
21/02:30pm 28.0 23.1 18.1 55 6.3 SE 41 52 22 28 1015.8 1015.7 0.0
21/02:00pm 29.2 25.2 18.6 52 6.8 SE 37 54 20 29 1016.1 1016.0 0.0
21/01:30pm 28.4 24.0 18.5 55 6.3 SE 39 50 21 27 1016.4 1016.3 0.0
21/01:00pm 29.8 26.5 19.2 53 6.9 SE 35 46 19 25 1016.7 1016.6 0.0
21/12:30pm 28.6 24.6 18.4 54 6.5 SE 37 48 20 26 1017.1 1017.0 0.0
21/12:00pm 28.0 23.6 18.4 56 6.1 SE 39 50 21 27 1017.5 1017.4 0.0
21/11:30am 28.5 24.3 18.0 53 6.7 SE 37 46 20 25 1017.9 1017.8 0.0
21/11:00am 28.2 23.9 17.7 53 6.6 SE 37 46 20 25 1018.0 1017.9 0.0
21/10:30am 28.4 24.8 18.5 55 6.3 SE 35 46 19 25 1018.1 1018.0 0.0
21/10:00am 28.3 24.9 19.0 57 6.0 SE 35 44 19 24 1018.2 1018.1 0.0
21/09:30am 27.5 23.9 18.5 58 5.8 SE 35 46 19 25 1018.3 1018.2 0.0
21/09:00am 26.8 22.5 17.8 57 5.7 SE 37 50 20 27 1018.2 1018.1 0.0
21/08:30am 27.0 23.8 18.6 60 5.4 SE 33 44 18 24 1017.8 1017.7 0.0
21/08:00am 26.3 22.4 17.9 60 5.3 SE 35 46 19 25 1017.5 1017.4 0.0
21/07:30am 25.7 21.6 17.4 60 5.2 SE 35 46 19 25 1017.1 1017.0 0.0
21/07:00am 25.0 22.3 18.4 66 4.2 SE 30 43 16 23 1016.7 1016.6 0.0
21/06:30am 24.4 21.3 18.3 69 3.8 SE 32 44 17 24 1016.5 1016.4 0.0
21/06:00am 24.1 21.0 17.6 67 4.0 SE 30 48 16 26 1016.3 1016.2 0.0
21/05:30am 24.0 20.9 18.4 71 3.5 SE 32 43 17 23 1016.1 1016.0 0.0
21/05:00am 23.9 21.1 18.1 70 3.6 SE 30 41 16 22 1015.9 1015.8 0.0
21/04:30am 24.0 21.3 18.4 71 3.5 SE 30 41 16 22 1015.8 1015.7 0.0
21/04:00am 24.0 21.3 18.4 71 3.5 SE 30 41 16 22 1015.7 1015.6 0.0
21/03:46am 24.0 22.0 19.1 74 3.1 SE 28 46 15 25 1015.7 1015.6 0.0
21/03:30am 24.1 22.2 19.4 75 3.0 SE 28 37 15 20 1015.6 1015.5 0.0
21/03:00am 24.0 21.4 18.6 72 3.4 SE 30 41 16 22 1015.6 1015.5 0.0
21/02:30am 23.9 21.7 18.8 73 3.2 SE 28 39 15 21 1015.8 1015.7 0.0
21/02:00am 24.0 20.7 18.0 69 3.8 SE 32 43 17 23 1016.1 1016.0 0.0
21/01:30am 24.0 21.3 18.4 71 3.5 SE 30 43 16 23 1016.3 1016.2 0.0
21/01:00am 24.2 21.2 18.6 71 3.5 SE 32 43 17 23 1016.7 1016.6 0.0
21/12:30am 24.1 21.5 18.7 72 3.4 SE 30 43 16 23 1017.0 1016.9 0.0
21/12:00am 24.2 21.5 18.4 70 3.7 SE 30 43 16 23 1017.4 1017.3 0.0
 
Date/Time
EST
Temp
°C
App
Temp
°C
Dew
Point
Rel
Hum
%
Delta-T
°C
Wind Press
QNH
hPa
Press
MSL
hPa
Rain
since 9 am
mm
Dir
 
Spd
km/h
Gust
km/h
Spd
kts
Gust
kts
20/11:30pm 24.3 21.3 18.7 71 3.6 SE 32 44 17 24 1017.5 1017.4 0.0
20/11:00pm 24.3 21.1 18.5 70 3.7 SE 33 50 18 27 1017.6 1017.5 0.0
20/10:30pm 24.3 21.1 18.7 71 3.6 SE 33 46 18 25 1017.7 1017.6 0.0
20/10:00pm 24.5 20.8 18.4 69 3.8 SE 35 48 19 26 1017.9 1017.8 0.0
20/09:30pm 24.5 22.0 18.9 71 3.6 SE 30 43 16 23 1017.8 1017.7 0.0
20/09:00pm 24.5 22.1 19.1 72 3.4 SE 30 43 16 23 1017.7 1017.6 0.0
20/08:30pm 24.5 21.3 18.7 70 3.7 SE 33 48 18 26 1017.4 1017.3 0.0
20/08:00pm 24.6 21.8 19.0 71 3.6 SE 32 44 17 24 1017.0 1016.9 0.0
20/07:35pm 24.7 21.9 19.1 71 3.6 SE 32 50 17 27 1016.8 1016.7 0.0
20/07:30pm 24.6 21.5 18.8 70 3.7 SE 33 50 18 27 1016.8 1016.7 0.0
20/07:00pm 24.7 21.8 18.9 70 3.7 SE 32 44 17 24 1016.5 1016.4 0.0
20/06:30pm 24.8 21.6 18.7 69 3.9 SE 33 50 18 27 1016.3 1016.2 0.0
20/06:29pm 24.8 21.8 18.7 69 3.9 SE 32 50 17 27 1016.2 1016.1 0.0
20/06:00pm 25.0 20.8 18.9 69 3.9 SE 39 52 21 28 1015.8 1015.7 0.0
20/05:30pm 25.5 21.1 18.4 65 4.5 SE 39 50 21 27 1015.5 1015.4 0.0
20/05:00pm 26.3 21.9 18.4 61 5.0 SE 39 50 21 27 1015.2 1015.1 0.0
20/04:30pm 26.6 22.9 19.2 64 4.8 SE 37 50 20 27 1015.1 1015.0 0.0
20/04:02pm 26.9 22.0 18.2 59 5.5 SE 41 59 22 32 1015.0 1014.9 0.0
20/04:00pm 27.0 22.5 18.3 59 5.5 SE 39 52 21 28 1015.0 1014.9 0.0
20/03:30pm 27.8 23.6 18.8 58 5.8 SE 39 59 21 32 1015.1 1015.0 0.0
20/03:23pm 27.6 22.9 18.6 58 5.8 SE 41 59 22 32 1015.1 1015.0 0.0
20/03:00pm 27.8 23.4 19.3 60 5.5 SE 41 56 22 30 1015.1 1015.0 0.0
20/02:30pm 26.7 22.7 19.3 64 4.8 SE 39 54 21 29 1015.4 1015.3 0.0
20/02:00pm 27.7 23.5 19.0 59 5.6 SE 39 52 21 28 1015.6 1015.5 0.0
20/01:30pm 28.2 23.8 19.4 59 5.7 SE 41 52 22 28 1015.9 1015.8 0.0
20/01:00pm 28.5 23.9 18.9 56 6.2 SE 41 56 22 30 1016.3 1016.2 0.0
20/12:30pm 29.3 25.4 19.6 56 6.3 SE 39 52 21 28 1016.6 1016.5 0.0
20/12:02pm 29.2 25.6 20.1 58 6.0 SE 39 57 21 31 1017.0 1016.9 0.0
20/12:00pm 28.4 23.9 19.1 57 6.0 SE 41 57 22 31 1017.0 1016.9 0.0
20/11:33am 28.9 24.8 19.2 55 6.3 SE 39 57 21 31 1017.4 1017.3 0.0
20/11:30am 28.6 24.3 19.5 58 5.9 SE 41 57 22 31 1017.4 1017.3 0.0
20/11:24am 28.2 23.7 18.3 55 6.3 SE 39 57 21 31 1017.6 1017.5 0.0
20/11:00am 28.4 23.9 19.1 57 6.0 SE 41 54 22 29 1017.8 1017.7 0.0
20/10:30am 27.9 22.8 18.6 57 6.0 SE 43 56 23 30 1017.9 1017.8 0.0
20/10:00am 28.3 23.8 19.0 57 6.0 SE 41 56 22 30 1018.1 1018.0 0.0
20/09:30am 27.2 22.8 18.5 59 5.6 SE 39 54 21 29 1018.3 1018.2 0.0
20/09:00am 26.8 22.5 18.6 60 5.2 SE 39 54 21 29 1018.5 1018.4 0.0

Other Formats:

Comma delimited format used in spreadsheet applications
http://www.bom.gov.au/fwo/IDQ60801/IDQ60801.94188.axf

JavaScript Object Notation format (JSON) in row-major order
http://www.bom.gov.au/fwo/IDQ60801/IDQ60801.94188.json